Time;durP1;ratioP1;P1;durP2;ratioP2;P2;SDS_P1;SDS_P2;PMS_P1;PMS_P2;Temp;Humidity;BMP_temperature;BMP_pressure;BME280_temperature;BME280_humidity;BME280_pressure;Samples;Min_cycle;Max_cycle;Signal;HPM_P1;HPM_P2
2024/03/19 00:00:56;;;;;;;11.48;5.82;;;6.00;99.90;;;;;;5065648;28;20048;-77
2024/03/19 00:03:21;;;;;;;14.05;6.57;;;5.90;99.90;;;;;;5061814;28;20041;-77
2024/03/19 00:05:47;;;;;;;14.93;6.95;;;5.90;99.90;;;;;;5062128;28;20052;-76
2024/03/19 00:08:13;;;;;;;13.27;6.50;;;5.90;99.90;;;;;;5046959;28;20476;-76
2024/03/19 00:10:42;;;;;;;11.27;6.28;;;6.00;99.90;;;;;;5058398;28;20033;-76
2024/03/19 00:13:10;;;;;;;13.70;6.72;;;6.00;99.90;;;;;;5047735;28;20036;-76
2024/03/19 00:15:36;;;;;;;13.02;6.07;;;6.10;99.90;;;;;;5043465;28;20033;-77
2024/03/19 00:18:03;;;;;;;16.13;6.45;;;6.30;99.90;;;;;;5066140;28;20044;-76
2024/03/19 00:20:29;;;;;;;14.38;6.65;;;6.30;99.90;;;;;;5049195;28;20538;-76
2024/03/19 00:22:56;;;;;;;11.65;6.40;;;6.30;99.90;;;;;;5049867;28;20047;-76
2024/03/19 00:25:24;;;;;;;14.00;7.63;;;6.40;99.90;;;;;;5061379;28;20048;-76
2024/03/19 00:27:49;;;;;;;14.85;6.45;;;6.40;99.90;;;;;;5039893;28;20396;-77
2024/03/19 00:30:16;;;;;;;12.18;6.68;;;6.40;99.90;;;;;;5058851;28;20044;-76
2024/03/19 00:32:41;;;;;;;15.63;7.30;;;6.40;99.90;;;;;;5061184;28;20036;-76
2024/03/19 00:35:10;;;;;;;15.40;6.93;;;6.40;99.90;;;;;;5066961;28;20079;-76
2024/03/19 00:37:37;;;;;;;13.30;7.15;;;6.40;99.90;;;;;;5062746;28;20045;-76
2024/03/19 00:40:04;;;;;;;11.25;7.50;;;6.50;99.90;;;;;;5046562;28;20055;-76
2024/03/19 00:42:31;;;;;;;13.88;7.47;;;6.50;99.90;;;;;;5046122;28;20045;-76
2024/03/19 00:44:58;;;;;;;17.42;7.30;;;6.50;99.90;;;;;;5066324;28;20570;-76
2024/03/19 00:47:25;;;;;;;17.10;7.50;;;6.60;99.90;;;;;;5046222;28;20127;-76
2024/03/19 00:49:51;;;;;;;13.27;7.07;;;6.60;99.90;;;;;;5064680;28;20397;-76
2024/03/19 00:52:16;;;;;;;11.18;6.78;;;6.60;99.90;;;;;;5077952;28;20056;-76
2024/03/19 00:54:44;;;;;;;12.95;7.38;;;6.70;99.90;;;;;;5048748;28;20063;-76
2024/03/19 00:57:10;;;;;;;12.02;6.75;;;6.70;99.90;;;;;;5047443;28;20028;-76
2024/03/19 00:59:36;;;;;;;14.55;7.50;;;6.70;99.90;;;;;;5063405;28;20040;-76
2024/03/19 01:02:02;;;;;;;13.02;8.13;;;6.60;99.90;;;;;;5049143;28;20044;-76
2024/03/19 01:04:28;;;;;;;12.73;7.97;;;6.60;99.90;;;;;;5046452;28;20113;-76
2024/03/19 01:06:56;;;;;;;14.32;10.55;;;6.60;99.90;;;;;;5060069;28;20041;-76
2024/03/19 01:09:22;;;;;;;13.63;8.55;;;6.70;99.90;;;;;;5048597;28;20041;-76
2024/03/19 01:11:48;;;;;;;16.70;9.20;;;6.70;99.90;;;;;;5064109;28;20131;-76
2024/03/19 01:14:14;;;;;;;15.23;9.88;;;6.70;99.90;;;;;;5059142;28;20377;-76
2024/03/19 01:16:39;;;;;;;15.10;8.73;;;6.70;99.90;;;;;;5059503;28;20123;-77
2024/03/19 01:19:05;;;;;;;13.90;9.80;;;6.70;99.90;;;;;;5061841;28;20037;-76
2024/03/19 01:21:31;;;;;;;14.85;9.15;;;6.80;99.90;;;;;;5062735;28;20149;-77
2024/03/19 01:23:57;;;;;;;11.70;8.60;;;6.80;99.90;;;;;;5046636;28;20044;-76
2024/03/19 01:26:23;;;;;;;14.50;8.20;;;6.80;99.90;;;;;;5055172;28;20076;-76
2024/03/19 01:28:49;;;;;;;12.27;8.75;;;6.70;99.90;;;;;;5046323;28;20047;-76
2024/03/19 01:31:15;;;;;;;13.95;8.13;;;6.70;99.90;;;;;;5043096;28;20049;-76
2024/03/19 01:33:41;;;;;;;12.88;8.35;;;6.70;99.90;;;;;;5059683;28;20139;-75
2024/03/19 01:36:07;;;;;;;13.07;8.05;;;6.70;99.90;;;;;;5065168;28;20115;-77
2024/03/19 01:38:33;;;;;;;13.00;8.60;;;6.70;99.90;;;;;;5059269;28;20041;-76
2024/03/19 01:40:58;;;;;;;15.20;9.35;;;6.70;99.90;;;;;;5047418;28;20044;-76
2024/03/19 01:43:27;;;;;;;13.88;9.73;;;6.70;99.90;;;;;;5062252;28;20645;-78
2024/03/19 01:46:12;;;;;;;13.23;9.18;;;6.70;99.90;;;;;;5048313;28;20055;-76
2024/03/19 01:48:39;;;;;;;15.13;8.75;;;6.70;99.90;;;;;;5075955;28;20041;-76
2024/03/19 01:51:04;;;;;;;13.80;8.68;;;6.70;99.90;;;;;;5048762;28;20066;-76
2024/03/19 01:53:31;;;;;;;13.90;9.20;;;6.70;99.90;;;;;;5044099;28;20060;-76
2024/03/19 01:55:57;;;;;;;17.55;10.25;;;6.70;99.90;;;;;;5049034;28;20047;-76
2024/03/19 01:58:23;;;;;;;16.67;9.75;;;6.70;99.90;;;;;;5044633;28;20114;-76
2024/03/19 02:00:50;;;;;;;15.98;10.48;;;6.70;99.90;;;;;;5064963;28;20052;-76
2024/03/19 02:03:16;;;;;;;13.60;10.10;;;6.70;99.90;;;;;;5041468;28;20052;-76
2024/03/19 02:05:46;;;;;;;14.02;10.32;;;6.70;99.90;;;;;;5080380;28;20056;-76
2024/03/19 02:08:12;;;;;;;15.30;10.57;;;6.80;99.90;;;;;;5044622;28;20048;-77
2024/03/19 02:10:39;;;;;;;16.58;11.95;;;6.80;99.90;;;;;;5061243;28;20064;-77
2024/03/19 02:13:05;;;;;;;15.65;11.02;;;6.80;99.90;;;;;;5033971;28;20566;-76
2024/03/19 02:15:31;;;;;;;20.08;12.55;;;6.80;99.90;;;;;;5045431;28;20055;-76
2024/03/19 02:17:57;;;;;;;15.52;11.45;;;6.90;99.90;;;;;;5060169;28;20041;-76
2024/03/19 02:20:23;;;;;;;19.52;12.10;;;6.90;99.90;;;;;;5063263;28;20054;-77
2024/03/19 02:22:49;;;;;;;17.10;11.50;;;6.90;99.90;;;;;;5047413;28;21324;-76
2024/03/19 02:25:16;;;;;;;14.75;10.90;;;7.00;99.90;;;;;;5062599;28;20041;-77
2024/03/19 02:27:46;;;;;;;20.65;11.57;;;7.00;99.90;;;;;;5059814;28;20305;-76
2024/03/19 02:30:12;;;;;;;17.20;11.40;;;7.00;99.90;;;;;;5056505;28;20171;-77
2024/03/19 02:32:39;;;;;;;19.02;11.68;;;7.00;99.90;;;;;;5050091;28;20048;-76
2024/03/19 02:35:06;;;;;;;20.30;11.50;;;7.00;99.90;;;;;;5054613;28;20044;-77
2024/03/19 02:37:32;;;;;;;19.55;11.45;;;7.10;99.90;;;;;;5043726;28;20040;-76
2024/03/19 02:39:59;;;;;;;22.23;11.52;;;7.10;99.90;;;;;;5042167;28;20033;-76
2024/03/19 02:42:25;;;;;;;15.82;10.32;;;7.10;99.90;;;;;;5076986;28;20051;-77
2024/03/19 02:44:51;;;;;;;20.00;11.10;;;7.10;99.90;;;;;;5060292;28;20496;-76
2024/03/19 02:47:17;;;;;;;17.65;11.20;;;7.10;99.90;;;;;;5046468;28;20049;-76
2024/03/19 02:49:43;;;;;;;16.23;11.40;;;7.10;99.90;;;;;;5047994;28;20044;-77
2024/03/19 02:52:10;;;;;;;16.27;10.70;;;7.10;99.90;;;;;;5058825;28;20120;-77
2024/03/19 02:54:39;;;;;;;17.30;12.07;;;7.20;99.90;;;;;;5060215;28;20385;-76
2024/03/19 02:57:05;;;;;;;16.27;11.48;;;7.10;99.90;;;;;;5075312;28;20052;-76
2024/03/19 02:59:30;;;;;;;21.80;12.13;;;7.10;99.90;;;;;;5049410;28;20037;-76
2024/03/19 03:01:56;;;;;;;18.10;11.50;;;7.20;99.90;;;;;;5064832;28;20048;-77
2024/03/19 03:04:23;;;;;;;18.23;11.32;;;7.20;99.90;;;;;;5065348;28;20045;-76
2024/03/19 03:06:49;;;;;;;16.20;11.05;;;7.20;99.90;;;;;;5059129;28;20047;-76
2024/03/19 03:09:17;;;;;;;17.60;12.27;;;7.10;99.90;;;;;;5062417;28;20047;-76
2024/03/19 03:11:45;;;;;;;18.42;12.15;;;7.10;99.90;;;;;;5061799;28;20036;-77
2024/03/19 03:14:11;;;;;;;18.27;11.65;;;7.10;99.90;;;;;;5051319;28;20036;-76
2024/03/19 03:16:37;;;;;;;20.15;12.02;;;7.20;99.90;;;;;;5041110;28;20045;-76
2024/03/19 03:19:03;;;;;;;16.88;12.30;;;7.10;99.90;;;;;;5050956;28;20041;-76
2024/03/19 03:21:29;;;;;;;18.65;13.10;;;7.10;99.90;;;;;;5050795;28;20068;-77
2024/03/19 03:23:54;;;;;;;18.33;12.63;;;7.00;99.90;;;;;;5081931;28;20381;-76
2024/03/19 03:26:20;;;;;;;17.60;12.23;;;7.10;99.90;;;;;;5040317;28;20095;-76
2024/03/19 03:28:46;;;;;;;21.75;14.27;;;7.10;99.90;;;;;;5056580;28;20396;-77
2024/03/19 03:31:12;;;;;;;22.95;14.10;;;7.10;99.90;;;;;;5055992;28;20123;-77
2024/03/19 03:33:38;;;;;;;17.08;12.32;;;7.10;99.90;;;;;;5052940;28;20040;-76
2024/03/19 03:36:04;;;;;;;21.05;13.07;;;7.20;99.90;;;;;;5058634;28;20048;-77
2024/03/19 03:38:30;;;;;;;20.98;13.80;;;7.10;99.90;;;;;;5058105;28;20040;-76
2024/03/19 03:40:56;;;;;;;18.45;13.18;;;7.10;99.90;;;;;;5059422;28;20075;-76
2024/03/19 03:43:22;;;;;;;19.63;14.15;;;7.20;99.90;;;;;;5045609;28;20045;-77
2024/03/19 03:45:51;;;;;;;21.38;14.73;;;7.20;99.90;;;;;;5049036;28;20121;-76
2024/03/19 03:48:17;;;;;;;22.45;16.17;;;7.20;99.90;;;;;;5062410;28;20086;-77
2024/03/19 03:50:43;;;;;;;25.73;16.88;;;7.20;99.90;;;;;;5065544;28;20488;-76
2024/03/19 03:53:11;;;;;;;23.95;16.95;;;7.20;99.90;;;;;;5047364;28;20116;-76
2024/03/19 03:55:40;;;;;;;24.23;17.50;;;7.30;99.90;;;;;;5064849;28;20102;-77
2024/03/19 03:58:06;;;;;;;26.15;17.08;;;7.30;99.90;;;;;;5062012;28;20098;-77
2024/03/19 04:00:34;;;;;;;27.38;18.30;;;7.30;99.90;;;;;;5078903;28;20094;-77
2024/03/19 04:03:00;;;;;;;26.65;18.02;;;7.40;99.90;;;;;;5046428;28;20059;-76
2024/03/19 04:05:26;;;;;;;26.10;16.80;;;7.40;99.90;;;;;;5060043;28;20049;-77
2024/03/19 04:07:52;;;;;;;27.48;18.23;;;7.40;99.90;;;;;;5046820;28;20044;-77
2024/03/19 04:10:18;;;;;;;27.83;18.13;;;7.50;99.90;;;;;;5078487;28;20063;-77
2024/03/19 04:12:49;;;;;;;26.15;17.55;;;7.50;99.90;;;;;;5063787;28;20226;-76
2024/03/19 04:15:16;;;;;;;21.98;18.20;;;7.50;99.90;;;;;;5063666;28;20048;-77
2024/03/19 04:17:42;;;;;;;25.17;17.35;;;7.50;99.90;;;;;;5046243;28;20459;-77
2024/03/19 04:20:11;;;;;;;27.45;17.80;;;7.60;99.90;;;;;;5067387;28;20388;-77
2024/03/19 04:22:38;;;;;;;28.10;18.25;;;7.60;99.90;;;;;;5045455;28;20044;-77
2024/03/19 04:25:05;;;;;;;22.85;16.80;;;7.60;99.90;;;;;;5082727;28;20070;-77
2024/03/19 04:27:31;;;;;;;23.75;17.20;;;7.60;99.90;;;;;;5047860;28;21729;-77
2024/03/19 04:29:56;;;;;;;25.60;16.90;;;7.60;99.90;;;;;;5047899;28;20037;-78
2024/03/19 04:32:22;;;;;;;23.90;16.67;;;7.60;99.90;;;;;;5062727;28;20037;-77
2024/03/19 04:34:48;;;;;;;24.23;17.15;;;7.60;99.90;;;;;;5064610;28;20044;-77
2024/03/19 04:37:14;;;;;;;23.85;17.35;;;7.60;99.90;;;;;;5060845;28;20835;-77
2024/03/19 04:39:40;;;;;;;25.58;16.52;;;7.60;99.90;;;;;;5041453;28;20041;-77
2024/03/19 04:42:07;;;;;;;23.42;15.30;;;7.60;99.90;;;;;;5049191;28;20524;-77
2024/03/19 04:44:33;;;;;;;21.25;16.00;;;7.60;99.90;;;;;;5062201;28;20041;-76
2024/03/19 04:46:59;;;;;;;22.38;16.83;;;7.60;99.90;;;;;;5046978;28;20040;-77
2024/03/19 04:49:24;;;;;;;26.05;17.10;;;7.70;99.90;;;;;;5061439;28;20507;-77
2024/03/19 04:51:50;;;;;;;25.10;17.33;;;7.70;99.90;;;;;;5048127;28;20101;-77
2024/03/19 04:54:16;;;;;;;23.85;17.25;;;7.70;99.90;;;;;;5062374;28;20039;-77
2024/03/19 04:56:42;;;;;;;24.83;17.95;;;7.70;99.90;;;;;;5059737;28;20115;-77
2024/03/19 04:59:08;;;;;;;29.50;16.98;;;7.70;99.90;;;;;;5060389;28;20040;-78
2024/03/19 05:01:34;;;;;;;24.40;18.38;;;7.90;99.90;;;;;;5046245;28;20037;-77
2024/03/19 05:04:00;;;;;;;25.00;18.33;;;7.80;99.90;;;;;;5071230;28;20037;-77
2024/03/19 05:06:25;;;;;;;21.48;16.52;;;7.80;99.90;;;;;;5047298;28;20044;-77
2024/03/19 05:08:51;;;;;;;25.55;18.15;;;7.90;99.90;;;;;;5061629;28;20579;-78
2024/03/19 05:11:17;;;;;;;23.40;16.80;;;7.90;99.90;;;;;;5061641;28;20041;-77
2024/03/19 05:13:43;;;;;;;26.42;17.17;;;7.90;99.90;;;;;;5081039;28;20040;-77
2024/03/19 05:16:10;;;;;;;24.77;17.40;;;7.90;99.90;;;;;;5048384;28;20036;-77
2024/03/19 05:18:36;;;;;;;25.67;17.48;;;7.90;99.90;;;;;;5060516;28;20036;-77
2024/03/19 05:21:02;;;;;;;22.67;16.00;;;7.90;99.90;;;;;;5043635;28;20043;-77
2024/03/19 05:23:28;;;;;;;26.17;17.08;;;7.90;99.90;;;;;;5047370;28;20109;-77
2024/03/19 05:25:54;;;;;;;23.52;17.58;;;8.00;99.90;;;;;;5047183;28;20044;-77
2024/03/19 05:28:20;;;;;;;26.27;17.20;;;8.00;99.90;;;;;;5047079;28;20047;-77
2024/03/19 05:30:45;;;;;;;23.75;17.13;;;8.00;99.90;;;;;;5063636;28;20079;-78
2024/03/19 05:33:11;;;;;;;22.77;15.50;;;8.00;99.90;;;;;;5064103;28;20036;-77
2024/03/19 05:35:40;;;;;;;28.70;17.33;;;8.00;99.90;;;;;;5062358;28;20404;-77
2024/03/19 05:38:06;;;;;;;22.05;15.35;;;8.00;99.90;;;;;;5061039;28;20064;-78
2024/03/19 05:40:32;;;;;;;23.77;16.35;;;8.00;99.90;;;;;;5040629;28;20068;-77
2024/03/19 05:42:57;;;;;;;20.65;15.77;;;8.10;99.90;;;;;;5044696;28;20040;-77
2024/03/19 05:45:23;;;;;;;18.30;15.00;;;8.10;99.90;;;;;;5062340;28;20070;-77
2024/03/19 05:47:49;;;;;;;22.20;15.35;;;8.10;99.90;;;;;;5065342;28;20496;-77
2024/03/19 05:50:14;;;;;;;25.33;15.82;;;8.10;99.90;;;;;;5063297;28;20084;-77
2024/03/19 05:52:41;;;;;;;23.42;16.27;;;8.20;99.90;;;;;;5059887;28;20127;-77
2024/03/19 05:55:09;;;;;;;22.13;15.82;;;8.20;99.90;;;;;;5065114;28;20550;-77
2024/03/19 05:57:35;;;;;;;23.80;14.80;;;8.20;99.90;;;;;;5047823;28;20395;-77
2024/03/19 06:00:04;;;;;;;22.20;15.50;;;8.30;99.90;;;;;;5075843;28;20093;-77
2024/03/19 06:02:30;;;;;;;21.63;15.02;;;8.30;99.90;;;;;;5042982;28;20044;-77
2024/03/19 06:04:56;;;;;;;21.13;15.45;;;8.30;99.90;;;;;;5050016;28;20047;-76
2024/03/19 06:07:22;;;;;;;20.33;14.65;;;8.30;99.90;;;;;;5061088;28;20048;-77
2024/03/19 06:09:48;;;;;;;23.75;16.90;;;8.30;99.90;;;;;;5060811;28;20512;-77
2024/03/19 06:12:14;;;;;;;20.52;15.23;;;8.40;99.90;;;;;;5058265;28;20032;-76
2024/03/19 06:14:40;;;;;;;25.20;15.40;;;8.40;99.90;;;;;;5060526;28;20051;-77
2024/03/19 06:17:06;;;;;;;18.20;14.23;;;8.40;99.90;;;;;;5060366;28;20443;-76
2024/03/19 06:19:33;;;;;;;20.75;15.00;;;8.40;99.90;;;;;;5044529;28;20052;-78
2024/03/19 06:21:59;;;;;;;22.70;15.52;;;8.40;99.90;;;;;;5060513;28;20041;-77
2024/03/19 06:24:24;;;;;;;19.45;15.05;;;8.50;99.90;;;;;;5044112;28;20033;-77
2024/03/19 06:26:50;;;;;;;21.73;15.20;;;8.60;99.90;;;;;;5042987;28;20040;-77
2024/03/19 06:29:16;;;;;;;26.13;16.77;;;8.50;99.90;;;;;;5056925;28;20040;-76
2024/03/19 06:31:42;;;;;;;21.02;14.85;;;8.50;99.90;;;;;;5044379;28;20468;-76
2024/03/19 06:34:08;;;;;;;20.65;14.60;;;8.50;99.90;;;;;;5046441;28;20115;-77
2024/03/19 06:36:34;;;;;;;22.33;15.73;;;8.60;99.90;;;;;;5047433;28;20114;-77
2024/03/19 06:39:00;;;;;;;22.40;16.25;;;8.60;99.90;;;;;;5062083;28;20040;-77
2024/03/19 06:41:25;;;;;;;22.25;15.35;;;8.70;99.90;;;;;;5058191;28;21226;-77
2024/03/19 06:43:51;;;;;;;19.92;15.68;;;8.70;99.90;;;;;;5052269;28;20048;-77
2024/03/19 06:46:17;;;;;;;19.52;14.85;;;8.70;99.90;;;;;;5047244;28;20049;-77
2024/03/19 06:48:45;;;;;;;22.15;16.25;;;8.70;99.90;;;;;;5050179;28;20122;-76
2024/03/19 06:51:11;;;;;;;21.58;15.18;;;8.80;99.90;;;;;;5061239;28;20261;-78
2024/03/19 06:53:40;;;;;;;20.00;15.35;;;8.80;99.90;;;;;;5061813;28;20041;-78
2024/03/19 06:56:09;;;;;;;22.45;15.50;;;8.80;99.90;;;;;;5062622;28;20040;-78
2024/03/19 06:58:36;;;;;;;22.13;15.73;;;8.90;99.90;;;;;;5065644;28;20566;-79
2024/03/19 07:01:03;;;;;;;24.15;16.38;;;9.00;99.90;;;;;;5062393;28;20040;-78
2024/03/19 07:03:29;;;;;;;23.80;16.02;;;9.00;99.90;;;;;;5055523;28;20090;-78
2024/03/19 07:05:56;;;;;;;23.73;15.77;;;9.10;99.90;;;;;;5039187;28;20048;-78
2024/03/19 07:08:22;;;;;;;18.88;15.27;;;9.20;99.90;;;;;;5038656;28;20056;-79
2024/03/19 07:10:48;;;;;;;22.10;15.75;;;9.30;99.90;;;;;;5062882;28;20503;-79
2024/03/19 07:13:15;;;;;;;20.85;15.13;;;9.40;99.90;;;;;;5069686;28;21336;-79
2024/03/19 07:15:40;;;;;;;23.02;15.80;;;9.40;99.90;;;;;;5066511;28;20048;-79
2024/03/19 07:18:08;;;;;;;20.38;13.57;;;9.60;99.90;;;;;;5063041;28;20036;-79
2024/03/19 07:20:43;;;;;;;19.40;13.57;;;9.60;99.90;;;;;;5052964;28;20064;-79
2024/03/19 07:23:09;;;;;;;19.23;13.30;;;9.80;99.90;;;;;;5050612;28;20094;-79
2024/03/19 07:25:35;;;;;;;20.60;14.35;;;9.80;99.90;;;;;;5051226;28;20124;-79
2024/03/19 07:28:01;;;;;;;17.83;12.40;;;9.90;99.90;;;;;;5049909;28;20041;-79
2024/03/19 07:30:27;;;;;;;17.38;12.77;;;10.00;99.90;;;;;;5061828;28;20113;-79
2024/03/19 07:32:55;;;;;;;19.60;13.48;;;10.10;99.90;;;;;;5052932;28;20483;-79
2024/03/19 07:35:22;;;;;;;21.10;12.90;;;10.20;99.90;;;;;;5045212;28;20501;-79
2024/03/19 07:37:49;;;;;;;17.70;12.10;;;10.30;99.90;;;;;;5064812;28;20181;-79
2024/03/19 07:40:18;;;;;;;19.02;12.48;;;10.40;99.90;;;;;;5061576;28;20044;-79
2024/03/19 07:42:44;;;;;;;18.02;11.85;;;10.40;99.90;;;;;;5055843;28;20048;-79
2024/03/19 07:45:12;;;;;;;17.15;12.55;;;10.40;99.90;;;;;;5055809;28;20402;-79
2024/03/19 07:47:38;;;;;;;19.77;12.32;;;10.50;99.90;;;;;;5049831;28;20048;-79
2024/03/19 07:50:07;;;;;;;17.85;12.80;;;10.40;99.90;;;;;;5054073;28;20041;-78
2024/03/19 07:52:37;;;;;;;16.90;12.80;;;10.40;99.90;;;;;;5056325;28;20052;-78
2024/03/19 07:55:06;;;;;;;16.50;12.90;;;10.40;99.90;;;;;;5064145;28;20049;-79
2024/03/19 07:57:32;;;;;;;21.27;13.52;;;10.40;99.90;;;;;;5044904;28;20072;-79
2024/03/19 08:00:05;;;;;;;16.75;12.93;;;10.40;99.90;;;;;;5037221;28;20041;-79
2024/03/19 08:02:31;;;;;;;17.63;13.20;;;10.40;99.90;;;;;;5046004;28;20045;-79
2024/03/19 08:04:57;;;;;;;19.40;13.60;;;10.40;99.90;;;;;;5057241;28;20083;-79
2024/03/19 08:07:23;;;;;;;19.23;12.68;;;10.40;99.90;;;;;;5051992;28;20048;-79
2024/03/19 08:09:49;;;;;;;15.27;12.18;;;10.40;99.90;;;;;;5047898;28;20056;-78
2024/03/19 08:12:15;;;;;;;16.75;12.02;;;10.40;99.90;;;;;;5063566;28;20047;-79
2024/03/19 08:14:41;;;;;;;19.27;12.50;;;10.40;99.90;;;;;;5060416;28;20107;-79
2024/03/19 08:17:10;;;;;;;19.27;12.57;;;10.40;99.90;;;;;;5064077;28;20687;-79
2024/03/19 08:19:36;;;;;;;17.17;12.45;;;10.50;99.90;;;;;;5046355;28;20097;-79
2024/03/19 08:22:03;;;;;;;15.27;12.63;;;10.50;99.90;;;;;;5048638;28;20036;-79
2024/03/19 08:24:29;;;;;;;15.95;12.45;;;10.50;99.90;;;;;;5047996;28;20052;-79
2024/03/19 08:26:55;;;;;;;16.20;12.18;;;10.60;99.90;;;;;;5061228;28;20048;-79
2024/03/19 08:29:21;;;;;;;17.42;12.00;;;10.60;99.90;;;;;;5046148;28;20049;-79
2024/03/19 08:31:47;;;;;;;15.50;11.43;;;10.60;99.90;;;;;;5047864;28;20123;-79
2024/03/19 08:34:13;;;;;;;15.10;11.68;;;10.70;99.90;;;;;;5047613;28;20068;-79
2024/03/19 08:36:39;;;;;;;17.25;11.85;;;10.70;99.90;;;;;;5064709;28;20064;-79
2024/03/19 08:39:05;;;;;;;15.93;11.77;;;10.70;99.90;;;;;;5065368;28;20071;-79
2024/03/19 08:41:31;;;;;;;18.00;12.52;;;10.80;99.90;;;;;;5044386;28;20070;-78
2024/03/19 08:43:56;;;;;;;16.38;11.20;;;10.80;99.90;;;;;;5048527;28;20056;-79
2024/03/19 08:46:22;;;;;;;14.40;11.30;;;10.80;99.90;;;;;;5047981;28;20523;-80
2024/03/19 08:48:48;;;;;;;16.48;10.93;;;10.90;99.90;;;;;;5065214;28;20471;-80
2024/03/19 08:51:15;;;;;;;16.95;11.07;;;10.90;99.90;;;;;;5061430;28;20037;-79
2024/03/19 08:53:41;;;;;;;15.73;10.73;;;10.90;99.90;;;;;;5046795;28;20046;-79
2024/03/19 08:56:08;;;;;;;14.07;10.77;;;11.00;99.90;;;;;;5047864;28;20045;-79
2024/03/19 08:58:35;;;;;;;14.77;11.48;;;11.00;99.90;;;;;;5046433;28;20041;-79
2024/03/19 09:01:01;;;;;;;15.00;10.70;;;11.10;99.90;;;;;;5045067;28;20037;-79
2024/03/19 09:03:27;;;;;;;15.60;11.10;;;11.10;99.90;;;;;;5048648;28;20109;-79
2024/03/19 09:05:56;;;;;;;16.92;11.57;;;11.20;99.90;;;;;;5060371;28;20515;-79
2024/03/19 09:08:22;;;;;;;17.02;9.88;;;11.30;99.90;;;;;;5046773;28;20044;-79
2024/03/19 09:10:52;;;;;;;15.63;10.82;;;11.40;99.90;;;;;;5047730;28;20036;-79
2024/03/19 09:13:18;;;;;;;13.68;11.10;;;11.50;99.90;;;;;;5044336;28;20446;-79
2024/03/19 09:15:44;;;;;;;15.23;10.98;;;11.50;99.90;;;;;;5046580;28;20121;-80
2024/03/19 09:18:10;;;;;;;14.10;10.52;;;11.60;99.90;;;;;;5063601;28;20127;-79
2024/03/19 09:20:36;;;;;;;15.45;11.10;;;11.70;99.90;;;;;;5048253;28;20108;-79
2024/03/19 09:23:01;;;;;;;16.15;11.70;;;11.80;99.90;;;;;;5058310;28;20037;-80
2024/03/19 09:25:27;;;;;;;14.65;10.65;;;11.80;99.90;;;;;;5061274;28;20040;-80
2024/03/19 09:27:53;;;;;;;13.43;9.98;;;11.90;99.90;;;;;;5073685;28;20045;-80
2024/03/19 09:30:19;;;;;;;15.18;10.77;;;12.00;99.90;;;;;;5057953;28;20273;-80
2024/03/19 09:32:45;;;;;;;12.70;10.30;;;12.10;99.90;;;;;;5059081;28;20397;-80
2024/03/19 09:35:10;;;;;;;11.10;9.32;;;12.10;99.90;;;;;;5061844;28;20044;-80
2024/03/19 09:37:36;;;;;;;12.80;9.18;;;12.20;99.90;;;;;;5043620;28;20055;-79
2024/03/19 09:40:03;;;;;;;11.50;8.52;;;12.20;99.90;;;;;;5074620;28;20045;-80
2024/03/19 09:42:29;;;;;;;10.90;8.88;;;12.30;99.90;;;;;;5065210;28;20066;-80
2024/03/19 09:44:55;;;;;;;11.50;8.85;;;12.40;99.90;;;;;;5056473;28;20556;-80
2024/03/19 09:47:22;;;;;;;13.27;8.65;;;12.50;99.90;;;;;;5078418;28;20044;-79
2024/03/19 09:49:49;;;;;;;10.05;8.15;;;12.60;99.90;;;;;;5063446;28;20058;-79
2024/03/19 09:52:15;;;;;;;11.25;7.53;;;12.70;99.90;;;;;;5059047;28;20133;-80
2024/03/19 09:54:42;;;;;;;11.25;8.75;;;12.90;99.90;;;;;;5045509;28;20044;-79
2024/03/19 09:57:18;;;;;;;12.48;8.02;;;13.00;99.90;;;;;;5047155;28;20507;-80
2024/03/19 09:59:45;;;;;;;12.35;8.20;;;13.20;99.90;;;;;;5058394;28;20204;-80
2024/03/19 10:02:18;;;;;;;12.55;7.32;;;13.30;99.90;;;;;;5042012;28;20069;-80
2024/03/19 10:04:47;;;;;;;9.57;7.53;;;13.40;99.90;;;;;;5075478;28;20855;-79
2024/03/19 10:07:20;;;;;;;9.75;6.82;;;13.50;99.90;;;;;;5060580;28;20044;-80
2024/03/19 10:09:47;;;;;;;11.68;7.18;;;13.50;99.90;;;;;;5059039;28;20043;-80
2024/03/19 10:12:14;;;;;;;8.63;6.25;;;13.70;99.90;;;;;;5047437;28;20036;-80
2024/03/19 10:14:40;;;;;;;9.15;6.20;;;13.70;99.90;;;;;;5044235;28;20041;-81
2024/03/19 10:17:13;;;;;;;8.32;5.80;;;13.80;99.90;;;;;;5046959;28;20040;-80
2024/03/19 10:19:39;;;;;;;6.70;5.35;;;13.80;99.90;;;;;;5054923;28;20068;-79
2024/03/19 10:22:09;;;;;;;6.78;4.97;;;13.80;99.90;;;;;;5062821;28;20067;-80
2024/03/19 10:24:35;;;;;;;9.10;6.03;;;13.80;99.90;;;;;;5045255;28;20055;-80
2024/03/19 10:27:00;;;;;;;9.25;6.60;;;13.80;99.90;;;;;;5062180;28;20036;-80
2024/03/19 10:29:26;;;;;;;10.50;6.72;;;13.80;99.90;;;;;;5058525;28;20123;-80
2024/03/19 10:31:58;;;;;;;9.02;5.57;;;13.90;99.90;;;;;;5061806;28;20488;-80
2024/03/19 10:34:23;;;;;;;7.03;4.60;;;13.90;99.90;;;;;;5062143;28;20045;-80
2024/03/19 10:36:51;;;;;;;6.10;4.55;;;13.90;99.90;;;;;;5058358;28;20051;-80
2024/03/19 10:39:19;;;;;;;8.02;4.85;;;13.90;99.90;;;;;;5078565;28;20040;-80
2024/03/19 10:41:46;;;;;;;8.15;4.78;;;13.90;99.90;;;;;;5043920;28;20079;-80
2024/03/19 10:44:16;;;;;;;7.13;4.20;;;14.00;99.90;;;;;;5046267;28;20077;-80
2024/03/19 10:46:43;;;;;;;7.00;4.85;;;14.00;99.90;;;;;;5044827;28;20040;-80
2024/03/19 10:49:23;;;;;;;6.95;4.20;;;14.00;99.90;;;;;;5046365;28;20045;-80
2024/03/19 10:52:00;;;;;;;6.32;4.80;;;14.00;99.90;;;;;;5060194;28;20614;-80
2024/03/19 10:54:29;;;;;;;6.72;4.72;;;14.10;99.90;;;;;;5060163;28;20051;-79
2024/03/19 10:56:56;;;;;;;7.27;4.70;;;14.10;99.90;;;;;;5057093;28;20183;-80
2024/03/19 10:59:22;;;;;;;7.68;4.97;;;14.10;99.90;;;;;;5046431;28;20303;-80
2024/03/19 11:01:54;;;;;;;6.70;4.85;;;14.20;99.90;;;;;;5061203;28;20098;-80
2024/03/19 11:04:30;;;;;;;6.57;4.60;;;14.30;99.90;;;;;;5062320;28;20052;-80
2024/03/19 11:06:58;;;;;;;6.32;4.82;;;14.40;99.90;;;;;;5057159;28;20049;-80
2024/03/19 11:09:26;;;;;;;8.13;5.07;;;14.40;99.90;;;;;;5059558;28;20045;-80
2024/03/19 11:12:04;;;;;;;8.10;4.90;;;14.40;99.90;;;;;;5046234;28;20147;-80
2024/03/19 11:14:32;;;;;;;8.40;4.68;;;14.50;99.90;;;;;;5043492;28;21126;-80
2024/03/19 11:16:58;;;;;;;8.68;5.68;;;14.60;99.90;;;;;;5046798;28;20079;-79
2024/03/19 11:19:28;;;;;;;7.85;5.13;;;14.60;99.90;;;;;;5039829;28;20044;-80
2024/03/19 11:21:56;;;;;;;;;;;14.70;99.90;;;;;;5078065;28;20036;-80
2024/03/19 11:24:38;;;;;;;8.27;5.38;;;14.70;99.90;;;;;;5066078;28;19924;-80
2024/03/19 11:27:05;;;;;;;7.25;4.60;;;14.70;99.90;;;;;;5049119;28;20048;-80
2024/03/19 11:29:35;;;;;;;10.05;5.68;;;14.80;99.90;;;;;;5045976;28;20042;-80
2024/03/19 11:32:08;;;;;;;7.43;5.90;;;14.80;99.90;;;;;;5047729;28;20051;-80
2024/03/19 11:34:34;;;;;;;7.75;5.15;;;14.80;99.90;;;;;;5065708;28;20036;-80
2024/03/19 11:36:59;;;;;;;7.90;5.82;;;14.80;99.90;;;;;;5047146;28;20067;-80
2024/03/19 11:39:26;;;;;;;7.88;5.63;;;14.80;99.90;;;;;;5052411;28;20033;-80
2024/03/19 11:41:52;;;;;;;7.90;5.20;;;14.80;99.90;;;;;;5048207;28;20055;-80
2024/03/19 11:44:22;;;;;;;7.55;4.90;;;14.80;99.90;;;;;;5043451;28;20048;-80
2024/03/19 11:46:50;;;;;;;12.48;9.63;;;14.80;99.90;;;;;;5048330;28;20084;-79
2024/03/19 11:49:29;;;;;;;10.23;7.82;;;14.80;99.90;;;;;;5037861;28;20048;-80
2024/03/19 11:51:59;;;;;;;12.03;8.93;;;14.80;99.90;;;;;;5058812;28;20069;-80
2024/03/19 11:54:29;;;;;;;10.75;7.95;;;14.80;99.90;;;;;;5037065;28;20393;-80
2024/03/19 11:56:56;;;;;;;;;;;14.90;99.90;;;;;;5054303;28;20048;-82
2024/03/19 11:59:26;;;;;;;9.60;8.25;;;14.90;99.90;;;;;;5047446;28;19924;-80
2024/03/19 12:01:54;;;;;;;12.82;10.02;;;14.90;99.90;;;;;;5070130;28;20037;-80
2024/03/19 12:04:20;;;;;;;9.35;7.00;;;14.90;99.90;;;;;;5057031;28;20048;-80
2024/03/19 12:06:50;;;;;;;12.68;9.40;;;14.90;99.90;;;;;;5056516;28;20043;-80
2024/03/19 12:09:17;;;;;;;9.57;6.53;;;14.90;99.90;;;;;;5057479;28;20040;-81
2024/03/19 12:11:44;;;;;;;7.50;6.25;;;14.90;99.90;;;;;;5051695;28;20067;-80
2024/03/19 12:14:14;;;;;;;11.57;7.95;;;15.00;99.90;;;;;;5047863;28;20041;-80
2024/03/19 12:16:41;;;;;;;9.70;7.35;;;15.10;99.90;;;;;;5047960;28;20106;-81
2024/03/19 12:19:13;;;;;;;8.50;6.38;;;15.20;99.90;;;;;;5034977;28;20049;-80
2024/03/19 12:21:43;;;;;;;9.98;6.07;;;15.30;99.90;;;;;;5038680;28;20040;-81
2024/03/19 12:24:14;;;;;;;10.57;7.00;;;15.30;99.90;;;;;;5043048;28;20037;-80
2024/03/19 12:26:43;;;;;;;9.00;5.57;;;15.30;99.90;;;;;;5060292;28;20036;-82
2024/03/19 12:29:16;;;;;;;7.00;4.88;;;15.40;99.90;;;;;;5047415;28;20143;-80
2024/03/19 12:31:52;;;;;;;7.40;5.25;;;15.50;99.90;;;;;;5039862;28;20044;-80
2024/03/19 12:34:37;;;;;;;8.60;5.68;;;15.50;99.90;;;;;;5038188;28;20075;-80
2024/03/19 12:37:09;;;;;;;7.68;5.65;;;15.60;99.90;;;;;;5034211;28;20526;-81